createdAt,value
2023-08-01T00:00:24.734Z,21.15
2023-08-01T00:01:27.680Z,21.15
2023-08-01T00:02:30.315Z,21.12
2023-08-01T00:03:33.750Z,21.13
2023-08-01T00:04:36.124Z,21.16
2023-08-01T00:05:38.499Z,21.15
2023-08-01T00:06:41.193Z,21.22
2023-08-01T00:07:43.753Z,21.24
2023-08-01T00:08:46.552Z,21.26
2023-08-01T00:09:49.044Z,21.28
2023-08-01T00:10:51.638Z,21.29
2023-08-01T00:11:53.856Z,21.28
2023-08-01T00:12:56.201Z,21.29
2023-08-01T00:13:58.537Z,21.29
2023-08-01T00:15:01.036Z,21.32
2023-08-01T00:16:07.560Z,21.30
2023-08-01T00:17:07.933Z,21.27
2023-08-01T00:18:10.114Z,21.22
2023-08-01T00:19:12.489Z,21.21
2023-08-01T00:20:14.716Z,21.22
2023-08-01T00:21:16.941Z,21.22
2023-08-01T00:22:19.245Z,21.23
2023-08-01T00:23:21.559Z,21.16
2023-08-01T00:24:23.907Z,21.16
2023-08-01T00:25:25.989Z,21.16
2023-08-01T00:26:28.410Z,21.14
2023-08-01T00:27:30.676Z,21.14
2023-08-01T00:28:35.453Z,21.16
2023-08-01T00:29:37.926Z,21.21
2023-08-01T00:30:40.992Z,21.18
2023-08-01T00:31:43.380Z,21.19
2023-08-01T00:32:45.802Z,21.23
2023-08-01T00:33:48.121Z,21.20
2023-08-01T00:34:51.582Z,21.22
2023-08-01T00:35:54.848Z,21.18
2023-08-01T00:36:57.975Z,21.18
2023-08-01T00:38:00.165Z,21.18
2023-08-01T00:39:02.575Z,21.20
2023-08-01T00:40:06.353Z,21.20
2023-08-01T00:41:08.874Z,21.18
2023-08-01T00:42:11.245Z,21.17
2023-08-01T00:43:13.607Z,21.18
2023-08-01T00:44:15.866Z,21.20
2023-08-01T00:45:18.516Z,21.17
2023-08-01T00:46:22.129Z,21.22
2023-08-01T00:47:25.196Z,21.22
2023-08-01T00:48:28.810Z,21.22
2023-08-01T00:49:33.056Z,21.22
2023-08-01T00:50:36.366Z,21.20
2023-08-01T00:51:39.152Z,21.19
2023-08-01T00:52:42.067Z,21.17
2023-08-01T00:53:44.562Z,21.13
2023-08-01T00:54:47.020Z,21.15
2023-08-01T00:55:50.241Z,21.12
2023-08-01T00:56:52.954Z,21.15
2023-08-01T00:57:55.551Z,21.14
2023-08-01T00:58:57.764Z,21.14
2023-08-01T01:00:00.170Z,21.08
2023-08-01T01:01:02.876Z,21.07
2023-08-01T01:02:05.876Z,21.09
2023-08-01T01:03:08.675Z,21.05
2023-08-01T01:04:10.970Z,21.04
2023-08-01T01:05:13.752Z,21.01
2023-08-01T01:06:29.530Z,21.00
2023-08-01T01:07:33.562Z,20.98
2023-08-01T01:08:36.054Z,20.97
2023-08-01T01:09:39.700Z,20.96
2023-08-01T01:10:42.087Z,20.95
2023-08-01T01:11:45.055Z,20.91
2023-08-01T01:12:47.565Z,20.92
2023-08-01T01:13:50.076Z,20.93
2023-08-01T01:14:52.355Z,20.89
2023-08-01T01:15:54.717Z,20.92
2023-08-01T01:16:58.171Z,20.90
2023-08-01T01:18:00.731Z,20.87
2023-08-01T01:19:06.660Z,20.88
2023-08-01T01:20:11.123Z,20.88
2023-08-01T01:22:35.555Z,20.86
2023-08-01T01:23:40.529Z,20.88
2023-08-01T01:24:43.217Z,20.86
2023-08-01T01:25:46.909Z,20.83
2023-08-01T01:26:51.429Z,20.82
2023-08-01T01:27:55.548Z,20.80
2023-08-01T01:28:59.004Z,20.79
2023-08-01T01:30:02.840Z,20.78
2023-08-01T01:31:05.832Z,20.76
2023-08-01T01:32:10.488Z,20.79
2023-08-01T01:33:13.536Z,20.76
2023-08-01T01:34:16.057Z,20.78
2023-08-01T01:35:18.722Z,20.77
2023-08-01T01:36:22.534Z,20.76
2023-08-01T01:37:26.087Z,20.77
2023-08-01T01:38:28.665Z,20.77
2023-08-01T01:39:30.969Z,20.74
2023-08-01T01:40:34.238Z,20.72
2023-08-01T01:41:36.986Z,20.72
2023-08-01T01:42:39.354Z,20.72
2023-08-01T01:43:41.683Z,20.72
2023-08-01T01:44:43.945Z,20.74
2023-08-01T01:45:46.179Z,20.74
2023-08-01T01:46:48.665Z,20.73
2023-08-01T01:47:51.006Z,20.75
2023-08-01T01:48:53.838Z,20.74
2023-08-01T01:49:56.243Z,20.75
2023-08-01T01:50:58.672Z,20.74
2023-08-01T01:52:01.008Z,20.75
2023-08-01T01:53:03.367Z,20.75
2023-08-01T01:54:05.723Z,20.70
2023-08-01T01:55:08.175Z,20.69
2023-08-01T01:56:12.448Z,20.67
2023-08-01T01:57:15.009Z,20.65
2023-08-01T01:58:17.550Z,20.66
2023-08-01T01:59:20.449Z,20.67
2023-08-01T02:00:23.012Z,20.67
2023-08-01T02:01:25.084Z,20.64
2023-08-01T02:02:27.957Z,20.66
2023-08-01T02:03:30.504Z,20.66
2023-08-01T02:04:32.956Z,20.62
2023-08-01T02:05:35.345Z,20.59
2023-08-01T02:06:37.706Z,20.59
2023-08-01T02:07:40.082Z,20.57
2023-08-01T02:08:42.687Z,20.55
2023-08-01T02:09:45.310Z,20.53
2023-08-01T02:10:48.935Z,20.54
2023-08-01T02:11:52.410Z,20.56
2023-08-01T02:12:55.630Z,20.57
2023-08-01T02:13:57.937Z,20.60
2023-08-01T02:15:00.466Z,20.57
2023-08-01T02:16:02.940Z,20.55
2023-08-01T02:17:06.062Z,20.48
2023-08-01T02:18:08.684Z,20.46
2023-08-01T02:19:11.114Z,20.43
2023-08-01T02:20:13.973Z,20.44
2023-08-01T02:21:16.319Z,20.39
2023-08-01T02:22:18.691Z,20.36
2023-08-01T02:23:20.996Z,20.32
2023-08-01T02:24:23.356Z,20.29
2023-08-01T02:25:25.789Z,20.28
2023-08-01T02:26:29.115Z,20.26
2023-08-01T02:27:31.647Z,20.26
2023-08-01T02:28:33.998Z,20.26
2023-08-01T02:29:36.544Z,20.28
2023-08-01T02:30:39.273Z,20.30
2023-08-01T02:31:41.702Z,20.33
2023-08-01T02:32:45.378Z,20.32
2023-08-01T02:33:48.527Z,20.34
2023-08-01T02:34:51.315Z,20.31
2023-08-01T02:35:54.015Z,20.28
2023-08-01T02:36:56.590Z,20.30
2023-08-01T02:37:58.877Z,20.26
2023-08-01T02:39:01.166Z,20.22
2023-08-01T02:40:05.036Z,20.17
2023-08-01T02:41:07.381Z,20.19
2023-08-01T02:42:09.782Z,20.14
2023-08-01T02:43:12.700Z,20.11
2023-08-01T02:44:15.631Z,20.06
2023-08-01T02:45:18.135Z,20.04
2023-08-01T02:46:20.328Z,20.06
2023-08-01T02:47:22.711Z,20.10
2023-08-01T02:48:24.914Z,20.12
2023-08-01T02:49:27.443Z,20.15
2023-08-01T02:50:30.402Z,20.17
2023-08-01T02:51:32.834Z,20.13
2023-08-01T02:52:35.185Z,20.16
2023-08-01T02:53:37.563Z,20.20
2023-08-01T02:54:40.026Z,20.18
2023-08-01T02:55:42.736Z,20.16
2023-08-01T02:56:45.161Z,20.16
2023-08-01T02:57:47.620Z,20.15
2023-08-01T02:58:49.967Z,20.18
2023-08-01T02:59:52.313Z,20.20
2023-08-01T03:00:54.738Z,20.18
2023-08-01T03:01:57.066Z,20.16
2023-08-01T03:02:59.502Z,20.16
2023-08-01T03:04:03.634Z,20.14
2023-08-01T03:06:18.141Z,20.28
2023-08-01T03:07:22.001Z,20.07
2023-08-01T03:08:24.694Z,20.09
2023-08-01T03:09:27.093Z,20.11
2023-08-01T03:10:35.973Z,20.15
2023-08-01T03:11:36.739Z,20.17
2023-08-01T03:12:39.213Z,20.15
2023-08-01T03:13:41.685Z,20.15
2023-08-01T03:14:44.070Z,20.16
2023-08-01T03:15:46.497Z,20.18
2023-08-01T03:16:48.967Z,20.18
2023-08-01T03:17:52.456Z,20.17
2023-08-01T03:18:54.885Z,20.19
2023-08-01T03:19:58.705Z,20.20
2023-08-01T03:21:01.181Z,20.24
2023-08-01T03:22:04.425Z,20.24
2023-08-01T03:23:06.867Z,20.26
2023-08-01T03:24:09.247Z,20.27
2023-08-01T03:25:12.244Z,20.24
2023-08-01T03:26:15.786Z,20.25
2023-08-01T03:27:18.180Z,20.18
2023-08-01T03:28:20.594Z,20.16
2023-08-01T03:29:24.931Z,20.09
2023-08-01T03:30:27.469Z,20.10
2023-08-01T03:31:30.730Z,20.09
2023-08-01T03:32:33.211Z,20.07
2023-08-01T03:33:35.577Z,20.04
2023-08-01T03:34:38.109Z,20.01
2023-08-01T03:35:40.526Z,20.01
2023-08-01T03:36:43.066Z,20.03
2023-08-01T03:37:45.615Z,20.03
2023-08-01T03:38:48.056Z,20.03
2023-08-01T03:39:50.302Z,20.04
2023-08-01T03:40:52.826Z,20.04
2023-08-01T03:41:55.547Z,20.07
2023-08-01T03:42:57.973Z,20.10
2023-08-01T03:44:00.788Z,20.14
2023-08-01T03:45:03.673Z,20.13
2023-08-01T03:46:07.939Z,20.14
2023-08-01T03:47:10.391Z,20.13
2023-08-01T03:48:12.821Z,20.13
2023-08-01T03:49:15.038Z,20.15
2023-08-01T03:50:17.456Z,20.12
2023-08-01T03:51:19.875Z,20.13
2023-08-01T03:52:22.369Z,20.14
2023-08-01T03:53:24.510Z,20.12
2023-08-01T03:54:26.906Z,20.15
2023-08-01T03:55:29.637Z,20.12
2023-08-01T03:56:32.319Z,20.09
2023-08-01T03:57:35.257Z,20.11
2023-08-01T03:58:38.403Z,20.09
2023-08-01T03:59:40.573Z,20.10
2023-08-01T04:00:42.956Z,20.10
2023-08-01T04:01:45.140Z,20.06
2023-08-01T04:02:49.012Z,20.10
2023-08-01T04:03:54.034Z,20.09
2023-08-01T04:04:56.391Z,20.07
2023-08-01T04:05:58.733Z,20.10
2023-08-01T04:07:01.114Z,20.05
2023-08-01T04:08:04.075Z,20.06
2023-08-01T04:09:06.833Z,20.01
2023-08-01T04:10:10.125Z,20.06
2023-08-01T04:11:12.970Z,20.05
2023-08-01T04:12:15.121Z,20.06
2023-08-01T04:13:17.926Z,20.04
2023-08-01T04:14:20.476Z,20.05
2023-08-01T04:15:22.888Z,20.04
2023-08-01T04:16:25.634Z,20.03
2023-08-01T04:17:27.963Z,20.01
2023-08-01T04:18:30.353Z,20.00
2023-08-01T04:19:32.709Z,20.00
2023-08-01T04:20:35.399Z,19.95
2023-08-01T04:21:37.684Z,19.93
2023-08-01T04:22:40.025Z,19.91
2023-08-01T04:23:42.401Z,19.91
2023-08-01T04:24:45.394Z,19.89
2023-08-01T04:25:47.768Z,19.94
2023-08-01T04:26:50.057Z,19.90
2023-08-01T04:27:52.465Z,19.90
2023-08-01T04:28:55.866Z,19.90
2023-08-01T04:29:58.836Z,19.91
2023-08-01T04:31:01.444Z,19.95
2023-08-01T04:32:05.069Z,19.98
2023-08-01T04:33:07.762Z,19.98
2023-08-01T04:34:10.157Z,19.99
2023-08-01T04:35:12.381Z,20.00
2023-08-01T04:36:15.424Z,20.02
2023-08-01T04:37:17.848Z,20.06
2023-08-01T04:38:20.188Z,20.07
2023-08-01T04:39:22.979Z,20.07
2023-08-01T04:40:25.501Z,20.09
2023-08-01T04:41:27.927Z,20.05
2023-08-01T04:42:30.276Z,20.08
2023-08-01T04:43:32.531Z,20.11
2023-08-01T04:44:34.819Z,20.10
2023-08-01T04:45:37.751Z,20.12
2023-08-01T04:46:40.553Z,20.15
2023-08-01T04:47:43.776Z,20.17
2023-08-01T04:48:46.302Z,20.18
2023-08-01T04:49:49.308Z,20.20
2023-08-01T04:50:51.918Z,20.24
2023-08-01T04:51:54.839Z,20.21
2023-08-01T04:52:57.179Z,20.24
2023-08-01T04:54:00.087Z,20.27
2023-08-01T04:55:02.500Z,20.30
2023-08-01T04:56:04.846Z,20.28
2023-08-01T04:57:07.640Z,20.27
2023-08-01T04:58:11.885Z,20.30
2023-08-01T04:59:14.419Z,20.29
2023-08-01T05:00:18.016Z,20.32
2023-08-01T05:01:20.813Z,20.31
2023-08-01T05:02:23.622Z,20.32
2023-08-01T05:03:26.135Z,20.32
2023-08-01T05:04:28.981Z,20.37
2023-08-01T05:05:31.397Z,20.37
2023-08-01T05:06:33.855Z,20.38
2023-08-01T05:07:36.161Z,20.37
2023-08-01T05:08:39.476Z,20.33
2023-08-01T05:09:41.970Z,20.29
2023-08-01T05:10:44.736Z,20.30
2023-08-01T05:11:47.595Z,20.26
2023-08-01T05:12:50.329Z,20.28
2023-08-01T05:13:53.293Z,20.27
2023-08-01T05:14:55.358Z,20.26
2023-08-01T05:15:58.007Z,20.24
2023-08-01T05:17:00.850Z,20.28
2023-08-01T05:18:03.657Z,20.32
2023-08-01T05:19:06.124Z,20.35
2023-08-01T05:20:08.874Z,20.36
2023-08-01T05:21:13.088Z,20.35
2023-08-01T05:22:15.304Z,20.31
2023-08-01T05:23:18.754Z,20.35
2023-08-01T05:24:21.220Z,20.38
2023-08-01T05:25:23.491Z,20.37
2023-08-01T05:26:25.912Z,20.39
2023-08-01T05:27:28.291Z,20.45
2023-08-01T05:28:31.053Z,20.49
2023-08-01T05:29:33.444Z,20.51
2023-08-01T05:30:35.946Z,20.56
2023-08-01T05:31:40.600Z,20.61
2023-08-01T05:32:42.778Z,20.63
2023-08-01T05:33:45.191Z,20.65
2023-08-01T05:34:47.290Z,20.65
2023-08-01T05:35:50.072Z,20.65
2023-08-01T05:36:52.539Z,20.65
2023-08-01T05:37:55.099Z,20.64
2023-08-01T05:38:57.520Z,20.67
2023-08-01T05:39:59.817Z,20.68
2023-08-01T05:41:02.403Z,20.69
2023-08-01T05:42:05.546Z,20.71
2023-08-01T05:43:07.820Z,20.72
2023-08-01T05:44:12.718Z,20.70
2023-08-01T05:45:15.243Z,20.68
2023-08-01T05:46:18.358Z,20.71
2023-08-01T05:47:20.682Z,20.75
2023-08-01T05:48:23.896Z,20.79
2023-08-01T05:49:26.143Z,20.79
2023-08-01T05:50:29.122Z,20.78
2023-08-01T05:51:31.330Z,20.79
2023-08-01T05:52:34.407Z,20.81
2023-08-01T05:53:36.826Z,20.86
2023-08-01T05:54:39.021Z,20.89
2023-08-01T05:55:41.285Z,20.95
2023-08-01T05:56:44.136Z,20.99
2023-08-01T05:57:47.860Z,20.99
2023-08-01T05:58:50.177Z,21.04
2023-08-01T05:59:52.423Z,21.04
2023-08-01T06:00:55.500Z,21.07
2023-08-01T06:01:57.982Z,21.07
2023-08-01T06:03:00.740Z,21.10
2023-08-01T06:04:03.242Z,21.13
2023-08-01T06:05:06.499Z,21.17
2023-08-01T06:06:09.426Z,21.20
2023-08-01T06:07:11.687Z,21.25
2023-08-01T06:08:13.952Z,21.30
2023-08-01T06:09:17.224Z,21.30
2023-08-01T06:10:19.943Z,21.34
2023-08-01T06:11:22.362Z,21.41
2023-08-01T06:12:25.180Z,21.45
2023-08-01T06:13:28.098Z,21.45
2023-08-01T06:14:30.588Z,21.50
2023-08-01T06:15:32.967Z,21.54
2023-08-01T06:16:35.586Z,21.59
2023-08-01T06:17:37.914Z,21.62
2023-08-01T06:18:40.279Z,21.64
2023-08-01T06:19:42.904Z,21.67
2023-08-01T06:20:45.853Z,21.70
2023-08-01T06:21:48.736Z,21.72
2023-08-01T06:22:51.492Z,21.73
2023-08-01T06:23:54.061Z,21.73
2023-08-01T06:24:56.387Z,21.77
2023-08-01T06:25:58.613Z,21.81
2023-08-01T06:27:01.974Z,21.85
2023-08-01T06:28:04.977Z,21.87
2023-08-01T06:29:07.858Z,21.88
2023-08-01T06:30:11.941Z,21.91
2023-08-01T06:31:15.178Z,21.97
2023-08-01T06:32:17.572Z,22.00
2023-08-01T06:33:19.925Z,22.03
2023-08-01T06:34:22.191Z,22.08
2023-08-01T06:35:24.593Z,22.15
2023-08-01T06:36:27.573Z,22.19
2023-08-01T06:37:30.443Z,22.22
2023-08-01T06:38:33.096Z,22.25
2023-08-01T06:39:35.398Z,22.29
2023-08-01T06:40:38.332Z,22.35
2023-08-01T06:41:40.660Z,22.39
2023-08-01T06:42:43.002Z,22.43
2023-08-01T06:43:46.422Z,22.46
2023-08-01T06:44:48.683Z,22.49
2023-08-01T06:45:51.261Z,22.55
2023-08-01T06:46:53.689Z,22.60
2023-08-01T06:47:58.015Z,22.63
2023-08-01T06:49:00.851Z,22.66
2023-08-01T06:50:03.179Z,22.66
2023-08-01T06:51:05.443Z,22.68
2023-08-01T06:52:08.144Z,22.70
2023-08-01T06:53:11.504Z,22.70
2023-08-01T06:54:13.842Z,22.68
2023-08-01T06:55:17.160Z,22.69
2023-08-01T06:56:20.036Z,22.67
2023-08-01T06:57:22.927Z,22.65
2023-08-01T06:58:25.186Z,22.66
2023-08-01T06:59:27.999Z,22.66
2023-08-01T07:00:30.396Z,22.68
2023-08-01T07:01:33.990Z,22.71
2023-08-01T07:02:36.323Z,22.75
2023-08-01T07:03:39.142Z,22.80
2023-08-01T07:04:41.440Z,22.83
2023-08-01T07:05:43.816Z,22.87
2023-08-01T07:06:46.784Z,22.90
2023-08-01T07:07:49.086Z,22.97
2023-08-01T07:08:51.292Z,23.01
2023-08-01T07:09:53.592Z,23.04
2023-08-01T07:10:56.758Z,23.07
2023-08-01T07:12:00.123Z,23.12
2023-08-01T07:13:03.942Z,23.15
2023-08-01T07:14:07.635Z,23.15
2023-08-01T07:15:11.032Z,23.20
2023-08-01T07:16:15.076Z,23.23
2023-08-01T07:17:17.860Z,23.25
2023-08-01T07:18:20.280Z,23.22
2023-08-01T07:19:25.686Z,23.24
2023-08-01T07:20:28.022Z,23.26
2023-08-01T07:21:30.245Z,23.26
2023-08-01T07:22:32.606Z,23.28
2023-08-01T07:23:36.601Z,23.31
2023-08-01T07:24:39.622Z,23.33
2023-08-01T07:25:42.080Z,23.34
2023-08-01T07:26:44.563Z,23.37
2023-08-01T07:27:48.370Z,23.39
2023-08-01T07:28:51.847Z,23.38
2023-08-01T07:29:54.254Z,23.41
2023-08-01T07:31:04.414Z,23.44
2023-08-01T07:32:08.183Z,23.46
2023-08-01T07:33:10.650Z,23.48
2023-08-01T07:34:13.362Z,23.50
2023-08-01T07:35:17.877Z,23.48
2023-08-01T07:36:21.244Z,23.47
2023-08-01T07:37:25.781Z,23.45
2023-08-01T07:38:29.510Z,23.44
2023-08-01T07:39:34.031Z,23.45
2023-08-01T07:40:42.051Z,23.43
2023-08-01T07:41:49.217Z,23.45
2023-08-01T07:42:58.689Z,23.49
2023-08-01T07:44:08.328Z,23.50
2023-08-01T07:45:12.003Z,23.49
2023-08-01T07:46:16.711Z,23.48
2023-08-01T07:47:21.248Z,23.50
2023-08-01T07:48:32.871Z,23.53
2023-08-01T07:49:47.901Z,23.54
2023-08-01T07:50:56.713Z,23.56
2023-08-01T07:52:06.789Z,23.59
2023-08-01T07:53:11.608Z,23.60
2023-08-01T07:54:17.616Z,23.58
2023-08-01T07:55:26.225Z,23.60
2023-08-01T07:56:34.963Z,23.63
2023-08-01T07:57:38.848Z,23.66
2023-08-01T07:58:47.794Z,23.69
2023-08-01T07:59:54.505Z,23.70
2023-08-01T08:01:05.108Z,23.73
2023-08-01T08:02:26.474Z,23.76
2023-08-01T08:03:30.454Z,23.74
2023-08-01T08:04:40.171Z,23.74
2023-08-01T08:05:45.078Z,23.71
2023-08-01T08:06:48.791Z,23.68
2023-08-01T08:07:52.422Z,23.70
2023-08-01T08:09:14.344Z,23.70
2023-08-01T08:10:20.821Z,23.71
2023-08-01T08:11:32.176Z,23.76
2023-08-01T08:12:39.750Z,23.79
2023-08-01T08:13:48.603Z,23.82
2023-08-01T08:14:53.080Z,23.81
2023-08-01T08:16:05.498Z,23.82
2023-08-01T08:17:08.321Z,23.86
2023-08-01T08:18:22.115Z,23.90
2023-08-01T08:19:30.247Z,23.95
2023-08-01T08:20:38.186Z,24.02
2023-08-01T08:21:45.520Z,24.06
2023-08-01T08:22:51.846Z,24.10
2023-08-01T08:24:06.053Z,24.11
2023-08-01T08:25:11.468Z,24.12
2023-08-01T08:26:22.235Z,24.15
2023-08-01T08:27:27.584Z,24.14
2023-08-01T08:28:37.873Z,24.15
2023-08-01T08:29:46.063Z,24.15
2023-08-01T08:30:50.920Z,24.15
2023-08-01T08:31:57.729Z,24.14
2023-08-01T08:33:02.484Z,24.14
2023-08-01T08:34:15.268Z,24.11
2023-08-01T08:35:18.819Z,24.07
2023-08-01T08:36:25.234Z,24.07
2023-08-01T08:37:32.221Z,24.04
2023-08-01T08:38:40.274Z,24.08
2023-08-01T08:39:52.365Z,24.09
2023-08-01T08:41:14.956Z,24.11
2023-08-01T08:42:19.424Z,24.09
2023-08-01T08:43:24.600Z,24.10
2023-08-01T08:44:31.713Z,24.10
2023-08-01T08:45:38.040Z,24.10
2023-08-01T08:46:43.538Z,24.09
2023-08-01T08:47:53.547Z,24.07
2023-08-01T08:49:03.481Z,24.07
2023-08-01T08:50:08.181Z,24.05
2023-08-01T08:51:13.258Z,24.05
2023-08-01T08:52:19.707Z,24.03
2023-08-01T08:53:22.984Z,24.02
2023-08-01T08:54:27.842Z,23.99
2023-08-01T08:55:31.929Z,24.00
2023-08-01T08:56:39.077Z,23.98
2023-08-01T08:57:42.524Z,23.96
2023-08-01T08:58:51.653Z,23.96
2023-08-01T09:00:00.428Z,23.96
2023-08-01T09:01:07.846Z,23.96
2023-08-01T09:02:12.371Z,23.97
2023-08-01T09:03:17.565Z,24.00
2023-08-01T09:04:22.170Z,24.01
2023-08-01T09:05:28.300Z,24.02
2023-08-01T09:06:34.828Z,24.05
2023-08-01T09:07:40.979Z,24.11
2023-08-01T09:09:03.967Z,24.17
2023-08-01T09:10:11.171Z,24.21
2023-08-01T09:11:17.696Z,24.30
2023-08-01T09:12:22.789Z,24.33
2023-08-01T09:13:33.472Z,24.37
2023-08-01T09:14:40.634Z,24.39
2023-08-01T09:15:51.344Z,24.44
2023-08-01T09:16:57.132Z,24.49
2023-08-01T09:18:00.781Z,24.53
2023-08-01T09:19:05.495Z,24.57
2023-08-01T09:20:10.366Z,24.61
2023-08-01T09:21:18.577Z,24.66
2023-08-01T09:22:21.891Z,24.71
2023-08-01T09:23:30.177Z,24.76
2023-08-01T09:24:36.847Z,24.82
2023-08-01T09:25:45.059Z,24.87
2023-08-01T09:27:05.764Z,24.89
2023-08-01T09:28:18.657Z,24.90
2023-08-01T09:29:22.545Z,24.89
2023-08-01T09:30:29.306Z,24.90
2023-08-01T09:31:35.526Z,24.89
2023-08-01T09:32:44.137Z,24.87
2023-08-01T09:33:48.940Z,24.86
2023-08-01T09:34:57.715Z,24.90
2023-08-01T09:36:04.818Z,24.94
2023-08-01T09:37:10.319Z,24.96
2023-08-01T09:38:16.161Z,24.98
2023-08-01T09:39:24.668Z,25.01
2023-08-01T09:41:59.346Z,25.14
2023-08-01T09:43:02.572Z,25.05
2023-08-01T09:44:05.104Z,25.09
2023-08-01T09:45:16.118Z,25.10
2023-08-01T09:46:18.753Z,25.15
2023-08-01T09:47:21.634Z,25.20
2023-08-01T09:48:25.597Z,25.21
2023-08-01T09:49:32.536Z,25.22
2023-08-01T09:50:35.501Z,25.19
2023-08-01T09:51:49.638Z,25.17
2023-08-01T09:52:51.902Z,25.17
2023-08-01T09:53:57.541Z,25.19
2023-08-01T09:54:59.832Z,25.15
2023-08-01T09:56:03.495Z,25.17
2023-08-01T09:57:08.429Z,25.17
2023-08-01T09:58:13.139Z,25.17
2023-08-01T09:59:19.091Z,25.15
2023-08-01T10:00:21.673Z,25.15
2023-08-01T10:01:25.997Z,25.10
2023-08-01T10:02:31.912Z,25.12
2023-08-01T10:03:35.193Z,25.10
2023-08-01T10:04:39.610Z,25.09
2023-08-01T10:05:44.331Z,25.10
2023-08-01T10:06:49.305Z,25.09
2023-08-01T10:07:53.621Z,25.09
2023-08-01T10:08:56.752Z,25.06
2023-08-01T10:10:00.885Z,25.09
2023-08-01T10:11:05.802Z,25.09
2023-08-01T10:12:10.696Z,25.09
2023-08-01T10:13:14.242Z,25.07
2023-08-01T10:14:17.931Z,25.09
2023-08-01T10:15:20.405Z,25.09
2023-08-01T10:16:23.665Z,25.08
2023-08-01T10:17:26.758Z,25.09
2023-08-01T10:18:31.035Z,25.08
2023-08-01T10:19:33.413Z,25.10
2023-08-01T10:20:38.176Z,25.16
2023-08-01T10:21:43.339Z,25.20
2023-08-01T10:22:46.220Z,25.22
2023-08-01T10:23:50.688Z,25.27
2023-08-01T10:24:53.749Z,25.27
2023-08-01T10:25:56.653Z,25.29
2023-08-01T10:28:11.921Z,25.38
2023-08-01T10:29:15.301Z,25.23
2023-08-01T10:30:22.320Z,25.22
2023-08-01T10:31:25.150Z,25.21
2023-08-01T10:32:36.894Z,25.22
2023-08-01T10:33:41.507Z,25.23
2023-08-01T10:34:51.970Z,25.25
2023-08-01T10:35:55.672Z,25.28
2023-08-01T10:36:59.637Z,25.31
2023-08-01T10:38:06.877Z,25.32
2023-08-01T10:39:09.285Z,25.33
2023-08-01T10:40:13.625Z,25.33
2023-08-01T10:42:44.396Z,25.44
2023-08-01T10:43:46.735Z,25.33
2023-08-01T10:44:49.163Z,25.40
2023-08-01T10:46:03.326Z,25.43
2023-08-01T10:47:06.761Z,25.47
2023-08-01T10:48:12.896Z,25.53
2023-08-01T10:49:16.385Z,25.62
2023-08-01T10:50:19.936Z,25.67
2023-08-01T10:51:22.346Z,25.74
2023-08-01T10:52:26.919Z,25.80
2023-08-01T10:56:20.160Z,26.05
2023-08-01T10:57:25.062Z,25.97
2023-08-01T10:58:27.734Z,26.03
2023-08-01T10:59:30.049Z,26.08
2023-08-01T11:00:32.430Z,26.13
2023-08-01T11:01:38.246Z,26.16
2023-08-01T11:02:41.238Z,26.19
2023-08-01T11:03:43.785Z,26.25
2023-08-01T11:04:58.072Z,26.28
2023-08-01T11:06:00.863Z,26.30
2023-08-01T11:07:05.875Z,26.32
2023-08-01T11:08:08.237Z,26.36
2023-08-01T11:09:21.712Z,26.37
2023-08-01T11:11:35.732Z,26.51
2023-08-01T11:12:43.847Z,26.43
2023-08-01T11:13:54.830Z,26.45
2023-08-01T11:15:01.027Z,26.49
2023-08-01T11:16:04.399Z,26.47
2023-08-01T11:17:07.576Z,26.50
2023-08-01T11:18:10.383Z,26.50
2023-08-01T11:19:20.731Z,26.55
2023-08-01T11:20:25.296Z,26.59
2023-08-01T11:21:28.023Z,26.62
2023-08-01T11:22:31.865Z,26.65
2023-08-01T11:23:34.574Z,26.67
2023-08-01T11:24:36.843Z,26.69
2023-08-01T11:25:41.911Z,26.71
2023-08-01T11:27:57.857Z,26.88
2023-08-01T11:29:03.803Z,26.78
2023-08-01T11:30:08.342Z,26.81
2023-08-01T11:31:14.443Z,26.84
2023-08-01T11:32:16.881Z,26.86
2023-08-01T11:33:23.966Z,26.88
2023-08-01T11:34:26.796Z,26.90
2023-08-01T11:35:30.389Z,26.91
2023-08-01T11:36:32.880Z,26.93
2023-08-01T11:37:36.032Z,26.96
2023-08-01T11:38:39.625Z,27.00
2023-08-01T11:39:43.207Z,26.99
2023-08-01T11:40:47.128Z,27.01
2023-08-01T11:41:49.783Z,27.01
2023-08-01T11:42:56.278Z,27.03
2023-08-01T11:44:04.392Z,27.05
2023-08-01T11:45:13.587Z,27.06
2023-08-01T11:46:16.545Z,27.11
2023-08-01T11:47:19.597Z,27.12
2023-08-01T11:48:23.167Z,27.12
2023-08-01T11:49:25.722Z,27.13
2023-08-01T11:50:28.445Z,27.15
2023-08-01T11:51:31.253Z,27.16
2023-08-01T11:52:33.720Z,27.19
2023-08-01T11:53:36.099Z,27.19
2023-08-01T11:54:46.009Z,27.18
2023-08-01T11:55:50.099Z,27.21
2023-08-01T11:56:57.117Z,27.22
2023-08-01T11:57:59.975Z,27.20
2023-08-01T12:00:27.740Z,27.30
2023-08-01T12:01:31.461Z,27.19
2023-08-01T12:02:33.967Z,27.20
2023-08-01T12:03:54.159Z,27.21
2023-08-01T12:04:57.016Z,27.25
2023-08-01T12:07:16.722Z,27.38
2023-08-01T12:08:19.147Z,27.31
2023-08-01T12:09:21.723Z,27.33
2023-08-01T12:10:24.856Z,27.37
2023-08-01T12:11:28.604Z,27.38
2023-08-01T12:12:31.485Z,27.45
2023-08-01T12:13:35.998Z,27.48
2023-08-01T12:14:41.948Z,27.52
2023-08-01T12:15:44.743Z,27.54
2023-08-01T12:16:48.305Z,27.58
2023-08-01T12:17:50.914Z,27.59
2023-08-01T12:19:00.436Z,27.59
2023-08-01T12:20:00.022Z,27.60
2023-08-01T12:21:02.984Z,27.63
2023-08-01T12:22:05.325Z,27.65
2023-08-01T12:23:07.382Z,27.68
2023-08-01T12:24:09.931Z,27.71
2023-08-01T12:25:12.432Z,27.74
2023-08-01T12:26:15.504Z,27.71
2023-08-01T12:27:18.378Z,27.73
2023-08-01T12:28:20.868Z,27.77
2023-08-01T12:29:23.351Z,27.78
2023-08-01T12:30:25.896Z,27.82
2023-08-01T12:31:28.895Z,27.85
2023-08-01T12:32:31.948Z,27.87
2023-08-01T12:33:34.918Z,27.87
2023-08-01T12:34:37.203Z,27.86
2023-08-01T12:35:41.009Z,27.83
2023-08-01T12:36:43.993Z,27.83
2023-08-01T12:37:46.651Z,27.82
2023-08-01T12:38:48.975Z,27.84
2023-08-01T12:39:51.231Z,27.86
2023-08-01T12:40:53.656Z,27.87
2023-08-01T12:41:56.603Z,27.87
2023-08-01T12:42:59.094Z,27.89
2023-08-01T12:44:01.876Z,27.87
2023-08-01T12:45:05.108Z,27.90
2023-08-01T12:46:08.207Z,27.92
2023-08-01T12:47:10.834Z,27.97
2023-08-01T12:48:13.254Z,28.02
2023-08-01T12:49:15.536Z,28.04
2023-08-01T12:50:18.051Z,28.05
2023-08-01T12:51:20.389Z,28.09
2023-08-01T12:52:24.412Z,28.14
2023-08-01T12:53:27.900Z,28.16
2023-08-01T12:54:32.448Z,28.14
2023-08-01T12:55:34.725Z,28.10
2023-08-01T12:56:37.866Z,28.08
2023-08-01T12:57:40.428Z,28.04
2023-08-01T12:58:42.683Z,28.01
2023-08-01T12:59:46.482Z,27.98
2023-08-01T13:00:49.194Z,27.98
2023-08-01T13:01:51.866Z,27.94
2023-08-01T13:02:54.403Z,27.87
2023-08-01T13:03:57.259Z,27.82
2023-08-01T13:04:59.579Z,27.80
2023-08-01T13:06:02.360Z,27.75
2023-08-01T13:07:05.589Z,27.76
2023-08-01T13:08:08.405Z,27.76
2023-08-01T13:09:10.728Z,27.77
2023-08-01T13:10:13.585Z,27.80
2023-08-01T13:11:16.250Z,27.82
2023-08-01T13:12:18.462Z,27.85
2023-08-01T13:13:20.697Z,27.81
2023-08-01T13:14:24.877Z,27.82
2023-08-01T13:15:28.547Z,27.83
2023-08-01T13:16:31.096Z,27.83
2023-08-01T13:17:34.040Z,27.84
2023-08-01T13:18:36.845Z,27.86
2023-08-01T13:19:39.176Z,27.89
2023-08-01T13:20:41.573Z,27.87
2023-08-01T13:21:43.967Z,27.91
2023-08-01T13:22:47.788Z,27.90
2023-08-01T13:23:50.640Z,27.95
2023-08-01T13:24:53.054Z,27.96
2023-08-01T13:25:56.469Z,27.98
2023-08-01T13:26:59.687Z,28.00
2023-08-01T13:28:02.208Z,27.96
2023-08-01T13:29:05.689Z,27.99
2023-08-01T13:30:09.041Z,28.03
2023-08-01T13:31:11.403Z,28.07
2023-08-01T13:32:14.634Z,28.08
2023-08-01T13:33:16.986Z,28.08
2023-08-01T13:34:19.380Z,28.10
2023-08-01T13:35:21.611Z,28.13
2023-08-01T13:36:24.936Z,28.10
2023-08-01T13:37:27.648Z,28.10
2023-08-01T13:38:32.915Z,28.11
2023-08-01T13:39:35.817Z,28.08
2023-08-01T13:40:38.308Z,28.13
2023-08-01T13:41:41.070Z,28.12
2023-08-01T13:42:43.842Z,28.14
2023-08-01T13:43:46.389Z,28.13
2023-08-01T13:44:49.312Z,28.08
2023-08-01T13:45:54.394Z,28.04
2023-08-01T13:46:57.209Z,28.04
2023-08-01T13:48:00.789Z,28.05
2023-08-01T13:49:03.288Z,28.03
2023-08-01T13:50:06.683Z,28.07
2023-08-01T13:51:09.328Z,28.10
2023-08-01T13:52:11.783Z,28.09
2023-08-01T13:53:14.169Z,28.13
2023-08-01T13:54:16.877Z,28.15
2023-08-01T13:55:19.344Z,28.14
2023-08-01T13:56:21.584Z,28.14